x

Patapsco, Md (44043) Weather Station

2:40pm - Sun 23rd Nov 2014 All times are EST. -5 hours from GMT.

  • Wind
    4mph, 7mph gusts
  • Air Temp 47°f
  • Sea Pressure 1021.1mb
  • Patapsco, Md
  • Patapsco, Md

More Historic Weather Station data

Upgrade to MSW Pro to gain access to the past 30 days of data for over 8000 Wavebouys and Weather Stations around the globe.

Join Pro

Comparision Forecast

View Surf forecast
   
Sun 11/23 2:40pm  -   -  4 7 mph 1021.1mb - 47f
2:30pm  -   -  4
mph
1021.8mb - 46f
2:20pm  -   -  4
mph
1021.9mb - 47f
12:50pm  -   -  4
mph
1023mb - 45f
12:20pm  -   -  7
mph
1023.4mb - 46f
12:10pm  -   -  7
mph
1023.5mb - 45f
11:50am  -   -  7 9 mph 1023.6mb - 45f
11:40am  -   -  4 7 mph 1023.9mb - 45f
11:30am  -   -  4 7 mph 1024.1mb - 45f
11:20am  -   -  4 7 mph 1024.2mb - 44f
10:50am  -   -  2
mph
1024.1mb - 45f
9:50am  -   -  4 7 mph 1024.5mb - 44f
9:40am  -   -  7
mph
1024.6mb - 44f
9:30am  -   -  7
mph
1024.7mb - 44f
9:20am  -   -  4
mph
1024.8mb - 44f
9:10am  -   -  4
mph
1024.9mb - 43f
8:50am  -   -  4
mph
1024.9mb - 43f
8:40am  -   -  4 7 mph 1025mb - 43f
8:30am  -   -  4 7 mph 1024.9mb - 43f
8:20am  -   -  7
mph
1025.1mb - 43f
8:10am  -   -  7
mph
1025.1mb - 43f
7:50am  -   -  4 7 mph 1025mb - 43f
7:40am  -   -  4 7 mph 1025mb - 43f
7:30am  -   -  7 9 mph 1025mb - 43f
7:20am  -   -  9 11 mph 1025mb - 43f
7:10am  -   -  9 11 mph 1024.8mb - 43f
7:00am 1ft 2s 9 11 mph 1024.6mb 42f 43f
6:50am  -   -  9
mph
1024.4mb - 43f
6:40am  -   -  9
mph
1024.3mb - 43f
6:20am  -   -  7 9 mph 1024.2mb - 43f
6:10am  -   -  7 9 mph 1024.1mb - 43f
6:00am 1ft 2s 7 9 mph 1024.1mb 42f 43f
5:50am  -   -  7 9 mph 1024mb - 43f
5:40am  -   -  7
mph
1024mb - 43f
5:30am  -   -  7
mph
1024.2mb - 44f
5:20am  -   -  7 9 mph 1024mb - 44f
5:10am  -   -  7 9 mph 1023.9mb - 44f
4:50am  -   -  11 13 mph 1023.7mb - 44f
4:40am  -   -  11 16 mph 1023.7mb - 44f
4:30am  -   -  11 16 mph 1023.7mb - 44f
4:20am  -   -  11 13 mph 1023.6mb - 44f
4:10am  -   -  11 13 mph 1023.7mb - 44f
4:00am 1.3ft 2s 11 13 mph 1023.7mb 43f 44f
3:50am  -   -  11 13 mph 1023.7mb - 44f
3:40am  -   -  11 13 mph 1023.8mb - 45f
3:30am  -   -  11 13 mph 1023.8mb - 45f
3:20am  -   -  13 16 mph 1023.8mb - 45f
3:10am  -   -  13 16 mph 1024mb - 45f
3:00am 1ft 3s 11 13 mph 1024.3mb 43f 45f
2:50am  -   -  11 13 mph 1024.5mb - 45f
2:40am  -   -  9 13 mph 1024.7mb - 45f
2:30am  -   -  11 13 mph 1024.7mb - 45f
2:20am  -   -  9 11 mph 1024.8mb - 45f
1:50am  -   -  9 11 mph 1024.7mb - 45f
1:40am  -   -  9 11 mph 1024.7mb - 44f
1:30am  -   -  7 9 mph 1024.7mb - 44f
1:20am  -   -  9
mph
1024.7mb - 44f
1:10am  -   -  7 9 mph 1024.8mb - 44f
1:00am 1.3ft 3s 9 13 mph 1025mb 44f 44f
12:50am  -   -  13 16 mph 1025mb - 44f
12:40am  -   -  11 13 mph 1025mb - 44f
12:30am  -   -  11 13 mph 1025mb - 44f
12:10am  -   -  9 11 mph 1025.4mb - 44f
Sat 11/22 11:50pm  -   -  9
mph
1025.7mb - 45f
11:40pm  -   -  9 11 mph 1025.6mb - 45f
11:30pm  -   -  9 11 mph 1025.6mb - 44f
11:10pm  -   -  11 13 mph 1025.7mb - 44f
11:00pm 1.3ft 3s 11 13 mph 1025.7mb 44f 44f
10:50pm  -   -  11 13 mph 1025.9mb - 44f
10:40pm  -   -  11 16 mph 1025.8mb - 45f
10:30pm  -   -  13 18 mph 1025.8mb - 45f
10:10pm  -   -  13 16 mph 1025.8mb - 44f
9:50pm  -   -  13 16 mph 1025.7mb - 44f
9:40pm  -   -  13 16 mph 1025.8mb - 44f
9:30pm  -   -  13 18 mph 1025.9mb - 44f
9:20pm  -   -  13 16 mph 1025.9mb - 44f
9:10pm  -   -  13 18 mph 1026mb - 44f
9:00pm 1.3ft 3s 13 18 mph 1025.8mb 44f 44f
8:50pm  -   -  13 16 mph 1026mb - 44f
8:40pm  -   -  13 16 mph 1026.1mb - 45f
8:30pm  -   -  13 16 mph 1026.1mb - 45f
8:10pm  -   -  11 16 mph 1026.2mb - 45f
8:00pm 1ft 2s 11 13 mph 1026.3mb 44f 45f
7:50pm  -   -  11 13 mph 1026.5mb - 45f
7:40pm  -   -  11 13 mph 1026.5mb - 45f
7:30pm  -   -  11 13 mph 1026.7mb - 45f
7:20pm  -   -  11
mph
1026.7mb - 45f
7:10pm  -   -  11 13 mph 1026.9mb - 46f
7:00pm 1.3ft 2s 11 13 mph 1027mb 44f 46f
6:50pm  -   -  11 13 mph 1027mb - 46f
6:40pm  -   -  13 16 mph 1026.9mb - 46f
6:30pm  -   -  13 16 mph 1026.8mb - 46f
6:20pm  -   -  13 18 mph 1026.7mb - 46f
6:10pm  -   -  16 18 mph 1026.8mb - 46f
5:40pm  -   -  13 18 mph 1026.9mb - 46f
5:30pm  -   -  13 16 mph 1027.2mb - 46f
5:20pm  -   -  13 16 mph 1027.2mb - 46f
4:50pm  -   -  16 18 mph 1027.2mb - 46f
4:40pm  -   -  18 20 mph 1027.2mb - 46f
4:30pm  -   -  18 20 mph 1027.3mb - 46f
4:20pm  -   -  16 18 mph 1027.5mb - 46f
4:10pm  -   -  13 16 mph 1027.7mb - 46f
3:50pm  -   -  16 18 mph 1028mb - 45f
3:40pm  -   -  16 18 mph 1028.1mb - 45f
3:20pm  -   -  18 20 mph 1027.9mb - 45f
3:10pm  -   -  16 20 mph 1028.2mb - 45f
3:00pm 1.6ft 3s 16 18 mph 1028.4mb 44f 44f
2:50pm  -   -  16 18 mph 1028.6mb - 44f
2:30pm  -   -  13 16 mph 1028.8mb - 45f
2:20pm  -   -  11 13 mph 1029.2mb - 45f
1:50pm  -   -  13 16 mph 1029.3mb - 45f
1:20pm  -   -  13 18 mph 1029.8mb - 43f
12:50pm  -   -  13 16 mph 1030.6mb - 42f
12:40pm  -   -  16 18 mph 1030.8mb - 41f
12:30pm  -   -  16 18 mph 1030.9mb - 41f
12:20pm  -   -  16 18 mph 1031.2mb - 40f
12:10pm  -   -  13 16 mph 1031.5mb - 40f
11:30am  -   -  13 16 mph 1032.7mb - 40f
10:30am  -   -  11 16 mph 1033.9mb - 38f
10:20am  -   -  13 16 mph 1034mb - 38f
9:50am  -   -  13 16 mph 1034.2mb - 37f
9:40am  -   -  11 16 mph 1034.2mb - 37f
9:30am  -   -  11 16 mph 1034.4mb - 36f
8:50am  -   -  11
mph
1034.8mb - 34f
7:50am  -   -  11 13 mph 1034.4mb - 33f
7:40am  -   -  11 13 mph 1034.3mb - 33f
7:30am  -   -  11 13 mph 1034.2mb - 33f
7:20am  -   -  9 11 mph 1034.1mb - 33f
7:10am  -   -  9 11 mph 1034.1mb - 33f
7:00am 0.3ft  -  9 13 mph 1034.1mb 42f 33f
6:50am  -   -  9 13 mph 1034.2mb - 32f
6:40am  -   -  9 11 mph 1034.2mb - 32f
6:30am  -   -  9
mph
1034.1mb - 32f
6:20am  -   -  7 9 mph 1034.1mb - 32f
6:10am  -   -  7 9 mph 1034.1mb - 32f
6:00am 0.3ft  -  7 9 mph 1034.1mb 42f 32f
5:50am  -   -  7 9 mph 1034.2mb - 32f
5:40am  -   -  7 9 mph 1034.2mb - 32f
5:30am  -   -  7 9 mph 1034.3mb - 32f
5:20am  -   -  7 9 mph 1034.3mb - 31f
5:10am  -   -  7 9 mph 1034.3mb - 31f
5:00am 0.3ft  -  9
mph
1034.4mb 42f 31f
4:50am  -   -  9
mph
1034.5mb - 32f
4:40am  -   -  9
mph
1034.6mb - 32f
4:30am  -   -  7 9 mph 1034.6mb - 31f
4:20am  -   -  7
mph
1034.5mb - 31f
4:10am  -   -  7
mph
1034.6mb - 31f
4:00am 0.3ft  -  7 9 mph 1034.7mb 42f 31f
3:50am  -   -  7 9 mph 1034.8mb - 31f
3:40am  -   -  7 9 mph 1034.7mb - 31f
3:30am  -   -  7
mph
1034.8mb - 31f
3:20am  -   -  7 9 mph 1034.9mb - 31f
3:10am  -   -  7 9 mph 1035mb - 31f
3:00am  -   -  7
mph
1035mb 42f 31f
2:50am  -   -  7
mph
1035mb - 31f
2:40am  -   -  7
mph
1035.1mb - 32f
2:30am  -   -  7
mph
1035.1mb - 32f
2:20am  -   -  7
mph
1035.1mb - 32f
2:10am  -   -  7 9 mph 1035.1mb - 32f
2:00am 0.3ft  -  4 7 mph 1035mb 42f 33f
1:50am  -   -  7
mph
1034.8mb - 33f
1:40am  -   -  7 9 mph 1034.6mb - 33f
1:30am  -   -  7 9 mph 1034.6mb - 33f
1:20am  -   -  7 9 mph 1034.6mb - 33f
1:10am  -   -  7 9 mph 1034.7mb - 33f
1:00am 0.3ft  -  7 9 mph 1034.7mb 42f 33f
12:50am  -   -  7 9 mph 1034.8mb - 33f
12:40am  -   -  7 9 mph 1034.9mb - 33f
12:30am  -   -  7 9 mph 1034.9mb - 33f
12:20am  -   -  7 9 mph 1035mb - 33f
12:10am  -   -  9 11 mph 1034.9mb - 33f
12:00am 0.3ft  -  9 11 mph 1035mb 44f 33f
Fri 11/21 11:50pm  -   -  9 11 mph 1034.9mb - 33f
11:40pm  -   -  9
mph
1034.9mb - 33f
11:30pm  -   -  7 9 mph 1034.9mb - 33f
11:20pm  -   -  9 11 mph 1034.8mb - 33f
11:10pm  -   -  9 11 mph 1034.9mb - 33f
11:00pm 0.3ft  -  11 13 mph 1034.8mb 44f 33f
10:50pm  -   -  9 11 mph 1035.1mb - 33f
10:40pm  -   -  9 11 mph 1035.1mb - 34f
10:30pm  -   -  9 11 mph 1035.1mb - 34f
10:20pm  -   -  9 11 mph 1035mb - 34f
10:10pm  -   -  9 11 mph 1035.1mb - 34f
10:00pm 0.7ft  -  9 11 mph 1035.1mb 46f 34f
9:50pm  -   -  11 13 mph 1035.2mb - 34f
9:40pm  -   -  11 13 mph 1035.2mb - 34f
9:30pm  -   -  11 13 mph 1035.2mb - 34f
9:20pm  -   -  11 13 mph 1035.1mb - 35f
9:10pm  -   -  11 13 mph 1035mb - 35f
9:00pm 1ft 2s 11 16 mph 1035.1mb 46f 35f
8:50pm  -   -  13 16 mph 1035mb - 35f
8:40pm  -   -  11 13 mph 1035mb - 35f
8:30pm  -   -  11 16 mph 1034.9mb - 35f
8:20pm  -   -  11 13 mph 1035mb - 35f
8:10pm  -   -  13 16 mph 1034.8mb - 35f
8:00pm 1ft 2s 13 16 mph 1034.8mb 46f 35f
7:50pm  -   -  11 16 mph 1034.8mb - 35f
7:40pm  -   -  13 16 mph 1034.8mb - 35f
7:30pm  -   -  11 16 mph 1034.8mb - 35f
7:20pm  -   -  11 16 mph 1034.8mb - 35f
7:10pm  -   -  11 13 mph 1034.8mb - 35f
7:00pm 1ft 2s 11 13 mph 1034.8mb 46f 35f
6:50pm  -   -  11 16 mph 1034.7mb - 35f
6:40pm  -   -  13 20 mph 1034.6mb - 35f
6:30pm  -   -  16 20 mph 1034.6mb - 35f
6:20pm  -   -  16 18 mph 1034.4mb - 35f
6:10pm  -   -  13 18 mph 1034.4mb - 36f
6:00pm 1.3ft 2s 13 18 mph 1034.2mb 45f 36f
5:50pm  -   -  13 18 mph 1034.1mb - 36f
5:40pm  -   -  16 20 mph 1033.9mb - 36f
5:30pm  -   -  13 18 mph 1033.8mb - 36f
5:10pm  -   -  13 18 mph 1033.5mb - 36f
5:00pm 1.3ft 3s 16 20 mph 1033.3mb 45f 36f
4:50pm  -   -  16 22 mph 1033.4mb - 36f
4:40pm  -   -  18 22 mph 1033.2mb - 36f
4:30pm  -   -  13 20 mph 1033.2mb - 36f
4:20pm  -   -  13 18 mph 1033.1mb - 36f
4:10pm  -   -  16 20 mph 1032.9mb - 36f
4:00pm 1.3ft 2s 16 18 mph 1032.8mb 45f 37f
3:40pm  -   -  16 22 mph 1032.6mb - 36f
3:30pm  -   -  13 20 mph 1032.5mb - 36f
3:20pm  -   -  13 20 mph 1032.4mb - 36f
2:50pm  -   -  16 20 mph 1032.2mb - 36f
2:40pm  -   -  16 22 mph 1032mb - 36f
2:30pm  -   -  13 20 mph 1032mb - 35f
2:20pm  -   -  16 22 mph 1031.8mb - 35f
2:10pm  -   -  16 20 mph 1031.8mb - 35f
1:50pm  -   -  16 20 mph 1031.8mb - 35f
1:30pm  -   -  16 25 mph 1031.7mb - 35f
1:20pm  -   -  16 22 mph 1031.6mb - 34f
1:10pm  -   -  18 22 mph 1031.6mb - 34f
12:50pm  -   -  16 22 mph 1031.6mb - 34f
12:40pm  -   -  20 25 mph 1031.4mb - 34f
12:30pm  -   -  18 25 mph 1031.4mb - 33f
12:20pm  -   -  16 25 mph 1031.4mb - 33f
12:10pm  -   -  16 22 mph 1031.6mb - 33f
12:00pm 1.6ft 3s 18 25 mph 1031.5mb 43f 33f
11:20am  -   -  20 25 mph 1031.7mb - 33f
10:40am  -   -  22 29 mph 1031.5mb - 32f
10:30am  -   -  18 27 mph 1031.5mb - 32f
10:20am  -   -  20 25 mph 1031.5mb - 32f
10:10am  -   -  22 27 mph 1031.3mb - 32f
10:00am 2ft 3s 22 29 mph 1031.1mb 43f 32f
9:50am  -   -  22 29 mph 1031mb - 31f
9:40am  -   -  20 25 mph 1030.8mb - 31f
9:30am  -   -  20 25 mph 1030.8mb - 31f
9:20am  -   -  16 22 mph 1030.7mb - 31f
9:10am  -   -  18 29 mph 1030.5mb - 32f
9:00am 1.6ft 3s 20 27 mph 1030.3mb 44f 31f
8:50am  -   -  20 29 mph 1030.2mb - 31f
8:40am  -   -  18 25 mph 1030mb - 31f
8:30am  -   -  20 29 mph 1029.7mb - 31f
8:20am  -   -  18 25 mph 1029.4mb - 31f
8:10am  -   -  18 22 mph 1029.1mb - 31f
8:00am 1.3ft 2s 18 22 mph 1028.8mb 44f 31f
7:50am  -   -  16 22 mph 1028.5mb - 31f
7:40am  -   -  16 20 mph 1028.4mb - 31f
7:30am  -   -  13 16 mph 1028.2mb - 31f
7:20am  -   -  13 18 mph 1028mb - 31f
7:10am  -   -  11 18 mph 1027.9mb - 31f
7:00am 1.3ft 2s 13 18 mph 1027.6mb 44f 31f
6:50am  -   -  16 20 mph 1027.3mb - 32f
6:40am  -   -  18 22 mph 1027.1mb - 32f
6:30am  -   -  18 25 mph 1026.9mb - 32f
6:20am  -   -  18 25 mph 1026.7mb - 32f
6:10am  -   -  20 29 mph 1026.7mb - 32f
6:00am 1.6ft 3s 20 27 mph 1026.5mb 44f 32f
5:50am  -   -  20 29 mph 1026.3mb - 32f
5:40am  -   -  20 27 mph 1026mb - 33f
5:30am  -   -  18 27 mph 1025.9mb - 32f
5:20am  -   -  18 22 mph 1025.8mb - 33f
5:10am  -   -  20 27 mph 1025.5mb - 33f
5:00am 1.3ft 3s 20 27 mph 1025.3mb 43f 33f
4:50am  -   -  18 27 mph 1025.1mb - 33f
4:40am  -   -  18 27 mph 1024.9mb - 33f
4:30am  -   -  18 25 mph 1024.7mb - 33f
4:20am  -   -  20 25 mph 1024.5mb - 33f
4:10am  -   -  20 27 mph 1024.4mb - 33f
4:00am 2ft 3s 22 29 mph 1024.3mb 43f 33f
3:50am  -   -  22 29 mph 1024.2mb - 34f
3:40am  -   -  25 31 mph 1024.1mb - 34f
3:30am  -   -  22 29 mph 1024.1mb - 34f
3:20am  -   -  22 31 mph 1024mb - 34f
3:10am  -   -  25 31 mph 1023.8mb - 34f
3:00am 2.5ft 3s 20 29 mph 1023.4mb 43f 34f
2:50am  -   -  22 29 mph 1022.9mb - 34f
2:40am  -   -  27 34 mph 1022.6mb - 34f
2:30am  -   -  27 36 mph 1022.3mb - 35f
2:20am  -   -  22 29 mph 1022.2mb - 34f
2:10am  -   -  18 22 mph 1022.1mb - 34f
2:00am 1.6ft 3s 18 22 mph 1021.8mb 43f 34f
1:50am  -   -  18 25 mph 1021.5mb - 34f
1:40am  -   -  20 25 mph 1021.2mb - 34f
1:30am  -   -  20 27 mph 1020.9mb - 35f
1:10am  -   -  22 27 mph 1020.5mb - 35f
1:00am 2ft 3s 22 27 mph 1020.4mb 44f 35f
12:50am  -   -  22 29 mph 1020.1mb - 36f
12:40am  -   -  22 27 mph 1020mb - 36f
12:30am  -   -  22 27 mph 1019.9mb - 36f
12:20am  -   -  25 29 mph 1019.7mb - 37f
12:10am  -   -  25 34 mph 1019.5mb - 37f
12:00am 2.5ft 3s 27 34 mph 1019.4mb 44f 37f
Thu 11/20 11:50pm  -   -  27 34 mph 1019.2mb - 37f
11:40pm  -   -  25 31 mph 1019mb - 37f
11:30pm  -   -  25 29 mph 1018.9mb - 37f
11:20pm  -   -  25 29 mph 1018.9mb - 38f
11:10pm  -   -  25 27 mph 1018.7mb - 38f
11:00pm 2.5ft 3s 25 29 mph 1018.6mb 44f 38f
10:50pm  -   -  25 29 mph 1018.5mb - 38f
10:40pm  -   -  25 31 mph 1018.4mb - 38f
10:30pm  -   -  25 29 mph 1018.3mb - 38f
10:20pm  -   -  25 27 mph 1018.1mb - 39f
10:10pm  -   -  25 29 mph 1018.1mb - 39f
10:00pm 2.5ft 3s 25 31 mph 1017.8mb 44f 40f
9:50pm  -   -  25 34 mph 1017.7mb - 40f
9:40pm  -   -  25 31 mph 1017.6mb - 40f
9:30pm  -   -  25 34 mph 1017.5mb - 40f
9:20pm  -   -  25 29 mph 1017.5mb - 41f
9:10pm  -   -  25 31 mph 1017.4mb - 41f
9:00pm 2ft 3s 25 31 mph 1017.3mb 45f 41f
8:50pm  -   -  22 27 mph 1017.1mb - 41f
8:40pm  -   -  20 25 mph 1017.1mb - 41f
8:30pm  -   -  22 27 mph 1016.9mb - 41f
8:20pm  -   -  20 27 mph 1016.9mb - 42f
8:10pm  -   -  20 27 mph 1016.9mb - 42f
8:00pm 2ft 2s 20 25 mph 1016.8mb 45f 42f
7:50pm  -   -  20 25 mph 1016.6mb - 42f
7:40pm  -   -  22 27 mph 1016.6mb - 43f
7:30pm  -   -  22 27 mph 1016.4mb - 43f
7:20pm  -   -  22 27 mph 1016.2mb - 44f
7:10pm  -   -  20 25 mph 1016mb - 44f
7:00pm 1.3ft 2s 20 27 mph 1015.8mb 45f 45f
6:50pm  -   -  16 22 mph 1015.7mb - 45f
6:40pm  -   -  16 22 mph 1015.6mb - 45f
6:30pm  -   -  16 20 mph 1015.5mb - 46f
6:20pm  -   -  18 20 mph 1015.2mb - 46f
6:10pm  -   -  13 20 mph 1015.2mb - 46f
6:00pm 0.7ft  -  13 18 mph 1015mb 45f 46f
5:50pm  -   -  16 20 mph 1014.8mb - 46f
5:40pm  -   -  11 16 mph 1014.6mb - 47f
5:30pm  -   -  13 16 mph 1014.4mb - 47f
5:20pm  -   -  9 13 mph 1014mb - 46f
5:10pm  -   -  9 11 mph 1013.8mb - 47f
5:00pm 0.7ft  -  9 11 mph 1013.6mb 45f 47f
4:40pm  -   -  4 7 mph 1013.5mb - 47f
4:30pm  -   -  4
mph
1013.4mb - 48f
4:20pm  -   -  4
mph
1013.5mb - 48f
3:50pm  -   -  11 13 mph 1013.2mb - 51f
3:10pm  -   -  9
mph
1013.1mb - 50f
2:50pm  -   -  13 18 mph 1013.1mb - 50f
2:40pm  -   -  13 18 mph 1013mb - 50f
1:50pm  -   -  7 11 mph 1013.5mb - 49f
1:40pm  -   -  9 16 mph 1013.6mb - 49f
12:50pm  -   -  7 9 mph 1014.1mb - 47f
12:40pm  -   -  9 11 mph 1014.4mb - 47f
12:20pm  -   -  11 13 mph 1014.6mb - 46f
11:50am  -   -  9 11 mph 1015.8mb - 45f
10:50am  -   -  13 16 mph 1016.2mb - 41f
10:40am  -   -  16 18 mph 1016.3mb - 41f
10:30am  -   -  16 18 mph 1016.4mb - 41f
10:20am  -   -  18 20 mph 1016.5mb - 41f
10:10am  -   -  18 20 mph 1016.6mb - 41f
10:00am 1.6ft 3s 18 22 mph 1016.7mb 45f 41f
9:50am  -   -  18 20 mph 1016.7mb - 41f
9:40am  -   -  18 22 mph 1016.6mb - 40f
9:30am  -   -  20 25 mph 1016.5mb - 40f
9:20am  -   -  18 22 mph 1016.7mb - 40f
9:10am  -   -  18 22 mph 1016.6mb - 40f
9:00am 1.6ft 3s 20 22 mph 1016.5mb 45f 39f
8:50am  -   -  20 25 mph 1016.5mb - 39f
8:40am  -   -  20 22 mph 1016.4mb - 39f
8:30am  -   -  18 22 mph 1016.3mb - 39f
8:20am  -   -  20 25 mph 1016.2mb - 39f
8:10am  -   -  20 27 mph 1016.1mb - 39f
8:00am 1.3ft 2s 22 25 mph 1016mb 45f 39f
7:50am  -   -  20 25 mph 1016mb - 39f
7:40am  -   -  20 25 mph 1015.8mb - 38f
7:30am  -   -  20 27 mph 1015.8mb - 38f
7:20am  -   -  22 25 mph 1015.7mb - 38f
7:10am  -   -  22 25 mph 1015.8mb - 38f
7:00am 1.3ft 2s 22 27 mph 1015.8mb 46f 38f
6:50am  -   -  20 25 mph 1015.9mb - 38f
6:40am  -   -  20 22 mph 1015.9mb - 37f
6:30am  -   -  18 22 mph 1016mb - 37f
6:20am  -   -  18 20 mph 1016.1mb - 37f
6:10am  -   -  16 20 mph 1016.2mb - 37f
6:00am 1ft 2s 11 13 mph 1016.3mb 46f 37f
5:50am  -   -  9 13 mph 1016.4mb - 37f
5:40am  -   -  9 13 mph 1016.5mb - 37f
5:30am  -   -  9 13 mph 1016.7mb - 37f
5:20am  -   -  11 13 mph 1016.8mb - 37f
5:10am  -   -  11 13 mph 1016.8mb - 37f
5:00am 1.3ft 2s 11 16 mph 1016.9mb 46f 38f
4:50am  -   -  16 20 mph 1016.7mb - 38f
4:40am  -   -  16 20 mph 1016.5mb - 38f
4:30am  -   -  18 20 mph 1016.5mb - 38f
4:20am  -   -  18 25 mph 1016.5mb - 38f
4:10am  -   -  20 27 mph 1016.5mb - 39f
4:00am 1.6ft 2s 18 22 mph 1016.6mb 46f 39f
3:50am  -   -  20 25 mph 1016.6mb - 39f
3:40am  -   -  18 22 mph 1016.7mb - 39f
3:30am  -   -  18 22 mph 1016.7mb - 39f
3:20am  -   -  20 22 mph 1016.8mb - 39f
3:10am  -   -  18 22 mph 1016.9mb - 39f
3:00am 2ft 3s 20 25 mph 1016.9mb 46f 39f
2:50am  -   -  20 25 mph 1017mb - 39f
2:40am  -   -  20 25 mph 1017.1mb - 39f
2:30am  -   -  20 25 mph 1017.1mb - 39f
2:20am  -   -  20 27 mph 1017.1mb - 40f
2:10am  -   -  22 27 mph 1017.1mb - 40f
2:00am 2ft 3s 22 29 mph 1017mb 46f 40f
1:50am  -   -  22 27 mph 1017.1mb - 40f
1:40am  -   -  22 27 mph 1017.2mb - 40f
1:30am  -   -  22 27 mph 1017.4mb - 40f
1:20am  -   -  22 29 mph 1017.4mb - 40f
1:10am  -   -  22 27 mph 1017.5mb - 40f
1:00am 2.5ft 3s 22 31 mph 1017.6mb 46f 40f
12:50am  -   -  22 29 mph 1017.7mb - 40f
12:40am  -   -  22 27 mph 1017.8mb - 40f
12:30am  -   -  22 27 mph 1017.9mb - 40f
12:20am  -   -  22 27 mph 1018.1mb - 40f
12:10am  -   -  22 29 mph 1018.2mb - 40f
12:00am 2ft 3s 22 29 mph 1018.3mb 46f 40f
Wed 11/19 11:50pm  -   -  22 29 mph 1018.5mb - 39f
11:40pm  -   -  20 27 mph 1018.6mb - 39f
11:30pm  -   -  22 25 mph 1018.8mb - 39f
11:20pm  -   -  20 25 mph 1018.9mb - 39f
11:10pm  -   -  22 27 mph 1019mb - 39f
11:00pm 2ft 3s 20 29 mph 1019.2mb 46f 39f
10:50pm  -   -  20 27 mph 1019.3mb - 39f
10:40pm  -   -  20 31 mph 1019.3mb - 39f
10:30pm  -   -  20 27 mph 1019.4mb - 39f
10:20pm  -   -  20 27 mph 1019.6mb - 39f
10:10pm  -   -  20 27 mph 1019.7mb - 39f
10:00pm 2ft 3s 20 27 mph 1019.9mb 46f 38f
9:50pm  -   -  20 25 mph 1020mb - 38f
9:40pm  -   -  20 25 mph 1020.1mb - 38f
9:30pm  -   -  18 25 mph 1020.2mb - 38f
9:20pm  -   -  20 27 mph 1020.1mb - 38f
9:10pm  -   -  20 27 mph 1020mb - 38f
9:00pm 2ft 3s 22 29 mph 1020mb 46f 38f
8:50pm  -   -  22 29 mph 1019.9mb - 39f
8:40pm  -   -  25 29 mph 1020mb - 38f